Time;durP1;ratioP1;P1;durP2;ratioP2;P2;SDS_P1;SDS_P2;PMS_P1;PMS_P2;Temp;Humidity;BMP_temperature;BMP_pressure;BME280_temperature;BME280_humidity;BME280_pressure;Samples;Min_cycle;Max_cycle;Signal;HPM_P1;HPM_P2
2022/10/02 00:00:05;;;;;;;6.72;2.97;;;461.40;2380.80;;;;;;5032946;28;20032;-81
2022/10/02 00:02:45;;;;;;;5.55;2.75;;;461.40;2380.80;;;;;;5033722;28;20029;-80
2022/10/02 00:05:42;;;;;;;6.05;2.80;;;461.30;2380.80;;;;;;5033703;28;20022;-80
2022/10/02 00:08:24;;;;;;;5.55;2.63;;;461.30;2380.80;;;;;;5032240;28;20040;-80
2022/10/02 00:11:01;;;;;;;4.22;2.50;;;461.30;2380.80;;;;;;5033898;28;20026;-79
2022/10/02 00:13:37;;;;;;;4.78;3.00;;;461.30;2380.80;;;;;;5032594;28;20365;-80
2022/10/02 00:16:08;;;;;;;6.10;2.60;;;461.20;2380.80;;;;;;5032369;28;20025;-79
2022/10/02 00:18:37;;;;;;;6.78;3.00;;;461.20;2380.80;;;;;;5032692;28;20025;-79
2022/10/02 00:21:30;;;;;;;4.70;2.40;;;461.20;2380.80;;;;;;5032601;28;20379;-80
2022/10/02 00:24:02;;;;;;;4.90;3.08;;;461.20;2380.80;;;;;;5031647;28;20021;-80
2022/10/02 00:26:36;;;;;;;6.97;3.45;;;461.10;2380.80;;;;;;5053140;28;20032;-79
2022/10/02 00:29:29;;;;;;;7.88;3.65;;;461.20;2380.80;;;;;;5052867;28;20079;-80
2022/10/02 00:32:01;;;;;;;7.50;3.03;;;461.10;2380.80;;;;;;5052368;28;20025;-80
2022/10/02 00:34:47;;;;;;;6.15;2.95;;;461.10;2380.80;;;;;;5032537;28;20052;-80
2022/10/02 00:37:33;;;;;;;6.55;3.30;;;461.10;2380.80;;;;;;5045319;28;20038;-77
2022/10/02 00:40:16;;;;;;;8.10;5.00;;;461.10;2380.80;;;;;;5053262;28;20033;-78
2022/10/02 00:43:00;;;;;;;6.80;3.40;;;461.10;2380.80;;;;;;5035405;28;20104;-78
2022/10/02 00:45:42;;;;;;;6.45;4.18;;;461.10;2380.80;;;;;;5032610;28;20026;-78
2022/10/02 00:48:43;;;;;;;14.48;6.68;;;461.10;2380.80;;;;;;5033200;28;20455;-79
2022/10/02 00:51:27;;;;;;;7.85;4.47;;;461.10;2380.80;;;;;;5033524;28;20087;-80
2022/10/02 00:54:05;;;;;;;7.53;4.88;;;461.20;2380.80;;;;;;5032073;28;20121;-80
2022/10/02 00:56:52;;;;;;;7.40;4.10;;;461.20;2380.80;;;;;;5015470;28;20029;-80
2022/10/02 00:59:56;;;;;;;8.07;4.10;;;461.20;2380.80;;;;;;5033063;28;20462;-79
2022/10/02 01:02:42;;;;;;;13.43;6.78;;;461.20;2380.80;;;;;;5032153;28;20035;-78
2022/10/02 01:05:09;;;;;;;8.18;4.82;;;461.20;2380.80;;;;;;5035086;28;20040;-79
2022/10/02 01:07:41;;;;;;;9.70;4.93;;;461.10;2380.80;;;;;;5056654;28;20025;-79
2022/10/02 01:10:08;;;;;;;13.15;5.75;;;461.10;2380.80;;;;;;5055485;28;20536;-79
2022/10/02 01:12:34;;;;;;;11.05;5.47;;;461.10;2380.80;;;;;;5055412;28;20043;-80
2022/10/02 01:15:00;;;;;;;9.25;4.55;;;461.10;2380.80;;;;;;5038575;28;20087;-80
2022/10/02 01:17:31;;;;;;;12.70;5.75;;;461.10;2380.80;;;;;;5039191;28;20025;-80
2022/10/02 01:20:00;;;;;;;19.83;8.82;;;461.10;2380.80;;;;;;5038911;28;20025;-81
2022/10/02 01:22:26;;;;;;;20.25;9.45;;;461.00;2380.80;;;;;;5057302;28;20036;-80
2022/10/02 01:25:03;;;;;;;22.80;10.60;;;461.00;2380.80;;;;;;5055576;28;20025;-81
2022/10/02 01:27:29;;;;;;;17.27;9.82;;;460.90;2380.80;;;;;;5038978;28;20119;-81
2022/10/02 01:30:06;;;;;;;11.15;6.78;;;435.90;2355.20;;;;;;5038608;28;20091;-80
2022/10/02 01:32:34;;;;;;;15.20;7.00;;;460.90;2380.80;;;;;;5038700;28;20053;-81
2022/10/02 01:35:01;;;;;;;12.82;7.57;;;460.90;2380.80;;;;;;5056754;28;20021;-81
2022/10/02 01:37:30;;;;;;;21.10;11.32;;;460.90;2380.80;;;;;;5056698;28;20100;-80
2022/10/02 01:40:08;;;;;;;20.52;9.90;;;460.80;2380.80;;;;;;5038583;28;20025;-81
2022/10/02 01:42:35;;;;;;;23.00;12.23;;;460.80;2380.80;;;;;;5038565;28;20052;-80
2022/10/02 01:45:04;;;;;;;18.83;8.90;;;436.10;2355.20;;;;;;5038713;28;20482;-79
2022/10/02 01:47:42;;;;;;;18.00;8.88;;;436.00;2355.20;;;;;;5038747;28;20116;-80
2022/10/02 01:50:18;;;;;;;12.20;6.30;;;435.90;2355.20;;;;;;5056587;28;20060;-80
2022/10/02 01:52:54;;;;;;;9.32;5.43;;;435.90;2355.20;;;;;;5055403;28;20475;-80
2022/10/02 01:55:33;;;;;;;21.00;9.70;;;436.00;2355.20;;;;;;5038479;28;20103;-81
2022/10/02 01:58:32;;;;;;;16.80;9.50;;;436.10;2355.20;;;;;;5038588;28;20032;-79
2022/10/02 02:01:26;;;;;;;10.55;4.63;;;436.00;2355.20;;;;;;5038089;28;20029;-80
2022/10/02 02:04:01;;;;;;;10.63;4.70;;;435.90;2355.20;;;;;;5054903;28;20116;-80
2022/10/02 02:06:45;;;;;;;7.20;3.80;;;436.00;2355.20;;;;;;5038336;28;20021;-80
2022/10/02 02:09:40;;;;;;;18.90;8.27;;;435.90;2355.20;;;;;;5054799;28;20029;-79
2022/10/02 02:12:35;;;;;;;10.55;5.60;;;436.00;2355.20;;;;;;5049959;28;20041;-81
2022/10/02 02:15:08;;;;;;;6.60;3.83;;;436.00;2355.20;;;;;;5034094;28;20033;-80
2022/10/02 02:17:44;;;;;;;7.22;3.40;;;436.00;2355.20;;;;;;5054591;28;20021;-79
2022/10/02 02:20:21;;;;;;;8.25;4.90;;;436.00;2355.20;;;;;;5038014;28;20066;-79
2022/10/02 02:22:50;;;;;;;16.58;8.40;;;436.00;2355.20;;;;;;5055606;28;20028;-79
2022/10/02 02:25:27;;;;;;;22.05;10.07;;;436.00;2355.20;;;;;;5054980;28;20028;-79
2022/10/02 02:27:58;;;;;;;14.43;7.38;;;435.90;2355.20;;;;;;5037880;28;20459;-80
2022/10/02 02:30:25;;;;;;;12.20;6.07;;;435.90;2355.20;;;;;;5054695;28;20104;-80
2022/10/02 02:33:00;;;;;;;14.85;6.75;;;435.90;2355.20;;;;;;5035101;28;20029;-80
2022/10/02 02:35:48;;;;;;;14.20;6.25;;;435.80;2355.20;;;;;;5053670;28;20455;-79
2022/10/02 02:38:23;;;;;;;19.30;9.10;;;435.70;2355.20;;;;;;5054213;28;20037;-81
2022/10/02 02:40:50;;;;;;;28.13;12.90;;;435.60;2355.20;;;;;;5037140;28;20087;-79
2022/10/02 02:43:42;;;;;;;30.15;13.02;;;435.60;2355.20;;;;;;5054575;28;20376;-81
2022/10/02 02:46:16;;;;;;;10.37;5.27;;;435.70;2355.20;;;;;;5034107;28;20402;-79
2022/10/02 02:48:47;;;;;;;15.25;5.97;;;435.70;2355.20;;;;;;5036408;28;20141;-79
2022/10/02 02:51:21;;;;;;;5.93;3.30;;;435.70;2355.20;;;;;;5037128;28;20040;-79
2022/10/02 02:53:47;;;;;;;6.22;2.97;;;435.70;2355.20;;;;;;5036922;28;20444;-79
2022/10/02 02:56:16;;;;;;;4.72;2.25;;;435.80;2355.20;;;;;;5053360;28;20025;-80
2022/10/02 02:58:45;;;;;;;2.63;1.52;;;435.80;2355.20;;;;;;5053792;28;20036;-80
2022/10/02 03:01:11;;;;;;;4.88;2.22;;;435.80;2355.20;;;;;;5055404;28;20421;-81
2022/10/02 03:03:37;;;;;;;3.33;1.92;;;435.80;2355.20;;;;;;5036912;28;20025;-78
2022/10/02 03:06:30;;;;;;;5.65;2.53;;;435.80;2355.20;;;;;;5070513;28;20056;-81
2022/10/02 03:08:57;;;;;;;4.68;2.08;;;435.80;2355.20;;;;;;5036772;28;20029;-79
2022/10/02 03:11:52;;;;;;;5.55;2.40;;;435.80;2355.20;;;;;;5036709;28;20017;-79
2022/10/02 03:14:33;;;;;;;3.80;1.95;;;435.70;2355.20;;;;;;5035793;28;20232;-80
2022/10/02 03:17:07;;;;;;;3.83;2.08;;;435.70;2355.20;;;;;;5054598;28;20029;-80
2022/10/02 03:19:46;;;;;;;11.80;2.50;;;435.60;2355.20;;;;;;5053470;28;20120;-81
2022/10/02 03:22:24;;;;;;;4.90;2.50;;;435.60;2355.20;;;;;;5036890;28;20029;-80
2022/10/02 03:25:01;;;;;;;3.90;2.10;;;435.60;2355.20;;;;;;5053011;28;20450;-81
2022/10/02 03:27:39;;;;;;;8.20;2.13;;;435.60;2355.20;;;;;;5053236;28;20382;-80
2022/10/02 03:30:19;;;;;;;3.75;2.22;;;435.50;2355.20;;;;;;5036646;28;20033;-80
2022/10/02 03:32:46;;;;;;;5.97;2.50;;;;;;;;;;5035901;28;20445;-79
2022/10/02 03:35:13;;;;;;;3.90;2.30;;;;;;;;;;5054761;28;20091;-79
2022/10/02 03:37:41;;;;;;;5.05;2.17;;;;;;;;;;5051970;28;20482;-80
2022/10/02 03:40:08;;;;;;;3.85;2.03;;;;;;;;;;5052736;28;20037;-81
2022/10/02 03:42:35;;;;;;;6.55;2.40;;;;;;;;;;5052737;28;20557;-81
2022/10/02 03:45:01;;;;;;;5.75;2.47;;;;;;;;;;5052595;28;20486;-79
2022/10/02 03:47:27;;;;;;;3.97;1.95;;;;;;;;;;5040421;28;20021;-81
2022/10/02 03:49:53;;;;;;;4.10;1.60;;;;;;;;;;5040376;28;20032;-79
2022/10/02 03:52:20;;;;;;;3.58;1.70;;;;;;;;;;5051180;28;20107;-79
2022/10/02 03:54:48;;;;;;;5.65;2.28;;;;;;;;;;5052220;28;20029;-78
2022/10/02 03:57:20;;;;;;;5.13;2.72;;;;;;;;;;5052630;28;20059;-81
2022/10/02 04:00:06;;;;;;;5.50;2.40;;;;;;;;;;5052522;28;20064;-79
2022/10/02 04:02:34;;;;;;;11.30;6.10;;;;;;;;;;5053868;28;20036;-80
2022/10/02 04:05:24;;;;;;;8.48;3.22;;;;;;;;;;5051915;28;20029;-79
2022/10/02 04:07:54;;;;;;;6.25;3.17;;;;;;;;;;5015463;28;20116;-80
2022/10/02 04:10:20;;;;;;;4.57;2.38;;;;;;;;;;5051328;28;20417;-79
2022/10/02 04:12:49;;;;;;;9.88;4.80;;;;;;;;;;5051135;28;20028;-79
2022/10/02 04:15:19;;;;;;;4.97;2.42;;;;;;;;;;5052249;28;20028;-78
2022/10/02 04:17:51;;;;;;;8.95;3.67;;;;;;;;;;5053775;28;20024;-81
2022/10/02 04:20:23;;;;;;;5.72;2.28;;;;;;;;;;5052125;28;20474;-80
2022/10/02 04:22:49;;;;;;;6.37;3.20;;;;;;;;;;5052400;28;20124;-80
2022/10/02 04:25:17;;;;;;;6.93;3.95;;;;;;;;;;5052330;28;20273;-80
2022/10/02 04:27:56;;;;;;;8.18;2.88;;;;;;;;;;5051969;28;20032;-79
2022/10/02 04:30:22;;;;;;;3.95;1.52;;;;;;;;;;5052234;28;20428;-81
2022/10/02 04:32:49;;;;;;;4.43;2.33;;;;;;;;;;5051113;28;20037;-80
2022/10/02 04:35:17;;;;;;;4.22;1.80;;;;;;;;;;5034277;28;20036;-80
2022/10/02 04:37:55;;;;;;;2.97;1.60;;;;;;;;;;5031479;28;20087;-80
2022/10/02 04:40:28;;;;;;;7.20;2.30;;;;;;;;;;5032760;28;20483;-79
2022/10/02 04:43:03;;;;;;;3.25;1.70;;;;;;;;;;5031834;28;20049;-80
2022/10/02 04:45:30;;;;;;;6.25;3.72;;;;;;;;;;5033520;28;20053;-81
2022/10/02 04:47:59;;;;;;;15.10;6.85;;;;;;;;;;5031809;28;20018;-80
2022/10/02 04:50:37;;;;;;;16.98;8.02;;;;;;;;;;5032180;28;20026;-80
2022/10/02 04:53:13;;;;;;;5.00;2.97;;;;;;;;;;5032248;28;20356;-78
2022/10/02 04:55:55;;;;;;;4.78;2.38;;;;;;;;;;5033334;28;20022;-79
2022/10/02 04:58:30;;;;;;;4.28;2.00;;;;;;;;;;5032152;28;20021;-79
2022/10/02 05:01:08;;;;;;;6.38;2.63;;;;;;;;;;5040560;28;20090;-81
2022/10/02 05:03:34;;;;;;;4.93;1.88;;;;;;;;;;5053719;28;20045;-80
2022/10/02 05:06:13;;;;;;;6.85;1.85;;;;;;;;;;5052416;28;20463;-80
2022/10/02 05:08:45;;;;;;;6.55;2.40;;;;;;;;;;5047222;28;20036;-80
2022/10/02 05:11:17;;;;;;;5.53;2.90;;;;;;;;;;5045477;28;20024;-80
2022/10/02 05:13:51;;;;;;;7.30;3.95;;;;;;;;;;5048163;28;20021;-79
2022/10/02 05:16:20;;;;;;;10.68;4.53;;;;;;;;;;5045898;28;20474;-82
2022/10/02 05:18:46;;;;;;;7.28;3.78;;;;;;;;;;5052181;28;20065;-81
2022/10/02 05:21:31;;;;;;;11.13;4.22;;;;;;;;;;5050590;28;20021;-80
2022/10/02 05:24:03;;;;;;;7.40;4.00;;;;;;;;;;5051433;28;20545;-80
2022/10/02 05:26:57;;;;;;;7.68;4.28;;;;;;;;;;5049717;28;20037;-80
2022/10/02 05:29:30;;;;;;;5.28;2.80;;;;;;;;;;5050674;28;20033;-83
2022/10/02 05:32:00;;;;;;;7.88;4.25;;;;;;;;;;5051935;28;20036;-83
2022/10/02 05:34:39;;;;;;;4.28;2.40;;;;;;;;;;5051742;28;20025;-83
2022/10/02 05:37:11;;;;;;;5.10;2.92;;;;;;;;;;5051537;28;20045;-82
2022/10/02 05:39:45;;;;;;;11.18;5.80;;;;;;;;;;5051821;28;20035;-82
2022/10/02 05:42:25;;;;;;;8.52;3.88;;;;;;;;;;5051868;28;20108;-84
2022/10/02 05:45:05;;;;;;;8.18;3.95;;;;;;;;;;5051350;28;20402;-83
2022/10/02 05:47:35;;;;;;;5.53;3.03;;;;;;;;;;5051765;28;20017;-83
2022/10/02 05:50:21;;;;;;;8.02;4.55;;;;;;;;;;5051725;28;20498;-83
2022/10/02 05:52:54;;;;;;;9.45;3.70;;;;;;;;;;5038681;28;20430;-84
2022/10/02 05:55:39;;;;;;;6.47;3.70;;;;;;;;;;5055325;28;20025;-84
2022/10/02 05:58:10;;;;;;;8.20;3.67;;;436.10;2355.20;;;;;;5055169;28;20059;-86
2022/10/02 06:00:59;;;;;;;6.63;3.03;;;;;;;;;;5038694;28;20035;-84
2022/10/02 06:03:25;;;;;;;8.73;3.85;;;;;;;;;;5035319;28;20033;-83
2022/10/02 06:05:58;;;;;;;10.80;3.10;;;;;;;;;;5054824;28;20427;-82
2022/10/02 06:08:50;;;;;;;12.25;5.32;;;;;;;;;;5056189;28;20087;-82
2022/10/02 06:11:24;;;;;;;7.75;3.80;;;;;;;;;;5056090;28;20083;-82
2022/10/02 06:13:56;;;;;;;6.65;3.30;;;460.80;2380.80;;;;;;5054603;28;20033;-82
2022/10/02 06:16:34;;;;;;;5.18;3.30;;;436.10;2355.20;;;;;;5038563;28;20061;-83
2022/10/02 06:19:51;;;;;;;9.00;2.88;;;436.10;2355.20;;;;;;5037986;28;20048;-83
2022/10/02 06:22:30;;;;;;;6.82;2.72;;;460.80;2380.80;;;;;;5045478;28;20557;-83
2022/10/02 06:25:10;;;;;;;4.50;2.33;;;460.80;2380.80;;;;;;5055782;28;20021;-81
2022/10/02 06:27:51;;;;;;;5.95;2.58;;;460.80;2380.80;;;;;;5036729;28;20036;-81
2022/10/02 06:30:18;;;;;;;7.57;4.60;;;460.90;2380.80;;;;;;5039131;28;20497;-82
2022/10/02 06:33:03;;;;;;;5.75;2.70;;;460.90;2380.80;;;;;;5070773;28;20078;-80
2022/10/02 06:35:38;;;;;;;4.40;2.80;;;460.90;2380.80;;;;;;5036261;28;20082;-82
2022/10/02 06:38:22;;;;;;;4.28;2.00;;;461.00;2380.80;;;;;;5070292;28;20379;-80
2022/10/02 06:41:01;;;;;;;4.43;2.13;;;461.00;2380.80;;;;;;5069330;28;20028;-80
2022/10/02 06:43:44;;;;;;;5.60;2.40;;;461.00;2380.80;;;;;;5067549;28;20065;-80
2022/10/02 06:46:21;;;;;;;3.97;2.35;;;461.00;2380.80;;;;;;5034413;28;20026;-82
2022/10/02 06:48:56;;;;;;;5.40;1.90;;;461.10;2380.80;;;;;;5035217;28;20112;-82
2022/10/02 06:51:41;;;;;;;4.60;2.55;;;461.10;2380.80;;;;;;5034352;28;20040;-83
2022/10/02 06:54:25;;;;;;;9.00;3.40;;;461.10;2380.80;;;;;;5032521;28;20022;-82
2022/10/02 06:57:19;;;;;;;5.70;2.63;;;461.10;2380.80;;;;;;5033884;28;20025;-80
2022/10/02 07:00:10;;;;;;;3.70;2.17;;;461.20;2380.80;;;;;;5034081;28;20029;-79
2022/10/02 07:02:54;;;;;;;4.68;2.13;;;461.10;2380.80;;;;;;5035302;28;20021;-80
2022/10/02 07:05:42;;;;;;;5.53;2.08;;;461.10;2380.80;;;;;;5034793;28;20088;-81
2022/10/02 07:08:36;;;;;;;4.38;2.08;;;461.20;2380.80;;;;;;5067979;28;20080;-81
2022/10/02 07:11:02;;;;;;;6.32;2.55;;;461.20;2380.80;;;;;;5066059;28;20156;-81
2022/10/02 07:13:39;;;;;;;5.45;2.92;;;461.20;2380.80;;;;;;5065162;28;20112;-82
2022/10/02 07:16:34;;;;;;;5.38;2.10;;;461.30;2380.80;;;;;;5066789;28;20026;-82
2022/10/02 07:19:31;;;;;;;4.20;2.10;;;461.60;2380.80;;;;;;5035109;28;20025;-82
2022/10/02 07:22:31;;;;;;;4.15;1.80;;;461.50;2380.80;;;;;;5033459;28;20451;-80
2022/10/02 07:25:21;;;;;;;5.05;1.80;;;461.50;2380.80;;;;;;5066683;28;20118;-81
2022/10/02 07:27:56;;;;;;;2.97;1.50;;;461.60;2380.80;;;;;;5049863;28;20021;-81
2022/10/02 07:30:22;;;;;;;2.83;1.50;;;461.70;2380.80;;;;;;5066416;28;20044;-80
2022/10/02 07:33:07;;;;;;;4.25;1.80;;;461.70;2380.80;;;;;;5033473;28;20411;-81
2022/10/02 07:35:55;;;;;;;3.60;1.42;;;461.70;2380.80;;;;;;5066749;28;20022;-81
2022/10/02 07:38:42;;;;;;;5.05;1.52;;;486.40;2380.80;;;;;;5066827;28;20076;-80
2022/10/02 07:41:39;;;;;;;5.97;1.77;;;461.70;2380.80;;;;;;5066660;28;20030;-80
2022/10/02 07:44:13;;;;;;;2.80;1.63;;;486.60;2380.80;;;;;;5065857;28;20053;-81
2022/10/02 07:46:53;;;;;;;5.22;2.10;;;486.60;2380.80;;;;;;5034224;28;20036;-80
2022/10/02 07:49:22;;;;;;;3.35;1.40;;;;;;;;;;5066306;28;20037;-80
2022/10/02 07:51:53;;;;;;;9.98;5.25;;;486.80;2380.80;;;;;;5049524;28;20044;-81
2022/10/02 07:54:38;;;;;;;19.95;14.85;;;486.70;2380.80;;;;;;5039466;28;20561;-79
2022/10/02 07:57:26;;;;;;;6.47;4.63;;;486.70;2380.80;;;;;;5039109;28;20029;-80
2022/10/02 08:00:01;;;;;;;3.25;1.95;;;486.70;2380.80;;;;;;5066132;28;20494;-82
2022/10/02 08:02:38;;;;;;;3.45;1.80;;;486.60;2380.80;;;;;;5034219;28;20367;-82
2022/10/02 08:05:30;;;;;;;3.83;1.80;;;486.60;2380.80;;;;;;5032553;28;20092;-82
2022/10/02 08:08:05;;;;;;;3.60;1.97;;;486.50;2380.80;;;;;;5034346;28;20189;-81
2022/10/02 08:10:36;;;;;;;4.50;2.33;;;;;;;;;;5032760;28;20398;-80
2022/10/02 08:13:10;;;;;;;5.63;2.38;;;;;;;;;;5048521;28;20017;-81
2022/10/02 08:15:37;;;;;;;3.45;1.80;;;486.90;2380.80;;;;;;5049109;28;20056;-80
2022/10/02 08:18:12;;;;;;;6.18;2.22;;;;;;;;;;5032341;28;20030;-80
2022/10/02 08:20:39;;;;;;;4.05;2.00;;;;;;;;;;5049363;28;20021;-78
2022/10/02 08:23:08;;;;;;;4.82;2.13;;;487.20;2380.80;;;;;;5049062;28;20463;-79
2022/10/02 08:25:46;;;;;;;4.65;2.00;;;487.20;2380.80;;;;;;5032090;28;20021;-79
2022/10/02 08:28:25;;;;;;;4.03;2.10;;;487.10;2380.80;;;;;;5032362;28;20025;-80
2022/10/02 08:30:51;;;;;;;6.28;2.05;;;487.20;2380.80;;;;;;5032526;28;20029;-79
2022/10/02 08:33:19;;;;;;;3.92;2.53;;;487.30;2380.80;;;;;;5033476;28;20025;-77
2022/10/02 08:35:58;;;;;;;3.35;1.98;;;487.20;2380.80;;;;;;5032171;28;20064;-80
2022/10/02 08:39:14;;;;;;;4.90;2.10;;;487.20;2380.80;;;;;;5065846;28;20034;-78
2022/10/02 08:41:58;;;;;;;4.93;2.55;;;487.30;2380.80;;;;;;5032379;28;20065;-80
2022/10/02 08:44:41;;;;;;;3.67;1.70;;;487.30;2380.80;;;;;;5048427;28;20128;-81
2022/10/02 08:47:28;;;;;;;3.80;2.20;;;512.00;2380.80;;;;;;5032470;28;20053;-79
2022/10/02 08:50:01;;;;;;;3.80;1.75;;;;;;;;;;5065623;28;20088;-81
2022/10/02 08:53:00;;;;;;;4.45;1.65;;;512.60;2380.80;;;;;;5033606;28;20044;-79
2022/10/02 08:55:58;;;;;;;5.38;1.73;;;512.60;2380.80;;;;;;5065517;28;20036;-77
2022/10/02 08:58:45;;;;;;;5.72;1.90;;;512.50;2380.80;;;;;;5048489;28;20025;-78
2022/10/02 09:01:52;;;;;;;6.55;2.13;;;512.50;2380.80;;;;;;5065368;28;20021;-79
2022/10/02 09:05:06;;;;;;;3.15;1.50;;;512.80;2380.80;;;;;;5033095;28;20022;-82
2022/10/02 09:07:40;;;;;;;3.53;2.13;;;512.70;2380.80;;;;;;5031152;28;20052;-79
2022/10/02 09:10:05;;;;;;;4.35;2.40;;;512.70;2380.80;;;;;;5015934;28;20124;-80
2022/10/02 09:13:09;;;;;;;3.10;1.90;;;512.70;2380.80;;;;;;5023093;28;20029;-78
2022/10/02 09:15:35;;;;;;;4.60;3.00;;;537.60;2406.40;;;;;;5048461;28;20037;-78
2022/10/02 09:18:29;;;;;;;2.92;1.60;;;512.90;2380.80;;;;;;5065285;28;20029;-79
2022/10/02 09:21:15;;;;;;;5.47;2.10;;;537.70;2406.40;;;;;;5065375;28;20172;-79
2022/10/02 09:24:12;;;;;;;3.35;1.63;;;537.70;2406.40;;;;;;5033292;28;20034;-79
2022/10/02 09:26:48;;;;;;;2.70;1.42;;;537.90;2406.40;;;;;;5037989;28;20032;-79
2022/10/02 09:29:35;;;;;;;5.82;2.33;;;537.80;2406.40;;;;;;5088038;28;20434;-80
2022/10/02 09:32:33;;;;;;;4.07;2.10;;;537.80;2406.40;;;;;;5087541;28;20086;-80
2022/10/02 09:35:36;;;;;;;3.25;1.85;;;538.00;2406.40;;;;;;5048380;28;20087;-79
2022/10/02 09:38:31;;;;;;;3.40;1.95;;;538.00;2406.40;;;;;;5047734;28;20026;-79
2022/10/02 09:41:15;;;;;;;4.68;2.50;;;537.90;2406.40;;;;;;5032360;28;20133;-79
2022/10/02 09:44:22;;;;;;;6.45;1.88;;;537.90;2406.40;;;;;;5026332;28;20081;-78
2022/10/02 09:47:17;;;;;;;4.55;1.80;;;538.00;2406.40;;;;;;5020494;28;20446;-80
2022/10/02 09:50:05;;;;;;;3.60;1.70;;;538.00;2406.40;;;;;;5055984;28;20617;-79
2022/10/02 09:53:07;;;;;;;4.72;1.73;;;537.90;2406.40;;;;;;5054129;28;20043;-81
2022/10/02 09:55:44;;;;;;;3.72;1.92;;;537.90;2406.40;;;;;;5053799;28;20029;-82
2022/10/02 09:58:33;;;;;;;4.10;2.00;;;538.10;2406.40;;;;;;5055153;28;20036;-81
2022/10/02 10:01:18;;;;;;;3.20;1.63;;;;;;;;;;5055679;28;20025;-79
2022/10/02 10:04:07;;;;;;;3.83;1.60;;;538.20;2406.40;;;;;;5056073;28;20025;-79
2022/10/02 10:06:39;;;;;;;3.38;1.80;;;538.30;2406.40;;;;;;5040322;28;20057;-80
2022/10/02 10:09:28;;;;;;;3.30;1.75;;;538.40;2406.40;;;;;;5055601;28;20437;-82
2022/10/02 10:12:13;;;;;;;3.88;1.60;;;538.40;2380.80;;;;;;5054895;28;20119;-79
2022/10/02 10:14:55;;;;;;;2.58;1.40;;;;;;;;;;5054979;28;20036;-80
2022/10/02 10:17:24;;;;;;;4.60;1.40;;;;;;;;;;5054775;28;20117;-79
2022/10/02 10:20:10;;;;;;;2.60;1.25;;;;;;;;;;5054763;28;20021;-81
2022/10/02 10:22:56;;;;;;;3.53;1.65;;;;;;;;;;5054593;28;20053;-80
2022/10/02 10:25:43;;;;;;;3.80;1.20;;;563.40;2329.60;;;;;;5054578;28;20021;-79
2022/10/02 10:28:26;;;;;;;3.60;1.35;;;563.20;2355.20;;;;;;5054244;28;20033;-79
2022/10/02 10:30:57;;;;;;;2.88;1.52;;;538.50;2380.80;;;;;;5054590;28;20120;-82
2022/10/02 10:34:01;;;;;;;3.08;1.63;;;563.40;2329.60;;;;;;5055802;28;20025;-80
2022/10/02 10:40:00;;;;;;;3.42;1.23;;;563.40;2329.60;;;;;;5055518;28;20508;-80
2022/10/02 10:42:49;;;;;;;3.90;1.20;;;563.40;2278.40;;;;;;5053709;28;20029;-81
2022/10/02 10:45:21;;;;;;;2.95;1.30;;;;;;;;;;5054394;28;20403;-82
2022/10/02 10:48:03;;;;;;;4.32;1.55;;;;;;;;;;5054388;28;20504;-78
2022/10/02 10:50:35;;;;;;;2.83;1.45;;;;;;;;;;5055167;28;20033;-79
2022/10/02 10:53:06;;;;;;;3.53;1.42;;;563.40;2227.20;;;;;;5054249;28;20107;-80
2022/10/02 10:55:39;;;;;;;4.43;1.47;;;563.40;2252.80;;;;;;5037294;28;20068;-81
2022/10/02 10:58:13;;;;;;;4.47;2.53;;;;;;;;;;5053964;28;20029;-81
2022/10/02 11:01:07;;;;;;;4.85;2.22;;;563.70;2252.80;;;;;;5054080;28;20025;-79
2022/10/02 11:04:18;;;;;;;2.33;1.00;;;563.80;2278.40;;;;;;5070584;28;20025;-80
2022/10/02 11:07:06;;;;;;;3.00;1.50;;;563.60;2227.20;;;;;;5037365;28;20075;-80
2022/10/02 11:09:51;;;;;;;7.68;1.55;;;563.50;2278.40;;;;;;5070325;28;20386;-79
2022/10/02 11:12:32;;;;;;;3.55;1.20;;;;;;;;;;5037226;28;20037;-80
2022/10/02 11:15:16;;;;;;;4.80;1.80;;;564.10;2252.80;;;;;;5053854;28;20025;-80
2022/10/02 11:18:05;;;;;;;2.67;1.23;;;;;;;;;;5053383;28;20422;-80
2022/10/02 11:20:32;;;;;;;3.22;1.30;;;;;;;;;;5034036;28;20036;-80
2022/10/02 11:23:09;;;;;;;3.15;1.42;;;;;;;;;;5053516;28;20484;-81
2022/10/02 11:25:38;;;;;;;3.53;1.75;;;;;;;;;;5053033;28;20025;-79
2022/10/02 11:28:07;;;;;;;4.40;1.70;;;;;;;;;;5053273;28;20029;-80
2022/10/02 11:30:37;;;;;;;3.88;1.70;;;;;;;;;;5054193;28;20382;-81
2022/10/02 11:33:24;;;;;;;8.02;2.90;;;589.10;2150.40;;;;;;5054827;28;20028;-80
2022/10/02 11:36:05;;;;;;;4.00;2.00;;;589.70;2176.00;;;;;;5053416;28;20033;-81
2022/10/02 11:38:49;;;;;;;3.30;1.48;;;614.60;2201.60;;;;;;5036330;28;20120;-80
2022/10/02 11:41:25;;;;;;;3.95;2.00;;;589.60;2099.20;;;;;;5036550;28;20025;-80
2022/10/02 11:44:09;;;;;;;2.67;1.30;;;;;;;;;;5053161;28;20049;-81
2022/10/02 11:47:08;;;;;;;7.65;1.60;;;614.70;2048.00;;;;;;5054140;28;20100;-82
2022/10/02 11:50:00;;;;;;;3.13;1.75;;;614.80;2124.80;;;;;;5053116;28;20033;-82
2022/10/02 11:52:45;;;;;;;3.38;1.65;;;;;;;;;;5052740;28;20116;-84
2022/10/02 11:55:20;;;;;;;3.47;1.50;;;;;;;;;;5053204;28;20037;-83
2022/10/02 11:57:50;;;;;;;2.25;1.10;;;;;;;;;;5054390;28;20104;-83
2022/10/02 12:00:35;;;;;;;2.55;1.23;;;;;;;;;;5052690;28;20045;-82
2022/10/02 12:03:28;;;;;;;6.72;3.50;;;640.30;1971.20;;;;;;5052814;28;20438;-84
2022/10/02 12:06:28;;;;;;;3.70;1.70;;;640.20;1971.20;;;;;;5035908;28;20454;-82
2022/10/02 12:09:09;;;;;;;2.70;1.30;;;;;;;;;;5069401;28;20033;-83
2022/10/02 12:11:59;;;;;;;3.50;1.83;;;;;;;;;;5052639;28;20021;-81
2022/10/02 12:14:31;;;;;;;3.30;1.48;;;;;;;;;;5025636;28;20508;-81
2022/10/02 12:17:22;;;;;;;2.97;1.52;;;665.70;1945.60;;;;;;5052597;28;20032;-83
2022/10/02 12:29:39;;;;;;;4.97;1.90;;;666.20;1920.00;;;;;;5053385;28;20039;-82
2022/10/02 12:32:26;;;;;;;4.65;1.90;;;666.50;1868.80;;;;;;5054889;28;20390;-82
2022/10/02 12:35:14;;;;;;;3.60;1.60;;;691.30;1945.60;;;;;;5051940;28;20029;-82
2022/10/02 12:37:46;;;;;;;2.65;1.17;;;691.20;1868.80;;;;;;5053727;28;20439;-83
2022/10/02 12:40:18;;;;;;;2.72;1.25;;;666.30;1843.20;;;;;;5052693;28;20102;-82
2022/10/02 12:43:08;;;;;;;3.53;1.30;;;666.50;1868.80;;;;;;5051763;28;20025;-84
2022/10/02 12:45:57;;;;;;;3.75;1.75;;;666.30;1894.40;;;;;;5035796;28;20025;-83
2022/10/02 12:48:59;;;;;;;3.38;1.40;;;691.20;1868.80;;;;;;5035408;28;20027;-81
2022/10/02 12:51:33;;;;;;;5.63;1.23;;;666.00;1868.80;;;;;;5052196;28;20025;-83
2022/10/02 12:54:42;;;;;;;2.80;1.35;;;666.30;1843.20;;;;;;5035661;28;20048;-83
2022/10/02 12:57:57;;;;;;;2.72;1.40;;;691.30;1817.60;;;;;;5035652;28;20112;-82
2022/10/02 13:00:32;;;;;;;2.40;1.05;;;691.40;1792.00;;;;;;5019279;28;20049;-82
2022/10/02 13:03:41;;;;;;;3.30;1.30;;;691.30;1766.40;;;;;;5057368;28;20032;-82
2022/10/02 13:06:10;;;;;;;4.90;1.55;;;;;;;;;;5032561;28;20445;-82
2022/10/02 13:08:36;;;;;;;3.40;1.60;;;;;;;;;;5055761;28;20043;-82
2022/10/02 13:11:05;;;;;;;4.65;1.67;;;;;;;;;;5055957;28;20029;-83
2022/10/02 13:13:59;;;;;;;5.45;2.53;;;692.10;1843.20;;;;;;5055892;28;20149;-80
2022/10/02 13:16:43;;;;;;;2.20;1.08;;;716.80;1843.20;;;;;;5056878;28;20028;-81
2022/10/02 13:19:29;;;;;;;3.72;1.40;;;;;;;;;;5055923;28;20371;-81
2022/10/02 13:21:55;;;;;;;4.30;1.27;;;;;;;;;;5055828;28;20475;-81
2022/10/02 13:24:33;;;;;;;5.18;2.92;;;;;;;;;;5055455;28;20444;-80
2022/10/02 13:27:06;;;;;;;4.47;1.20;;;;;;;;;;5055738;28;20025;-80
2022/10/02 13:29:41;;;;;;;2.88;1.40;;;;;;;;;;5055350;28;20380;-80
2022/10/02 13:32:22;;;;;;;3.50;1.10;;;;;;;;;;5054586;28;20122;-80
2022/10/02 13:34:55;;;;;;;2.95;1.30;;;;;;;;;;5049062;28;20025;-80
2022/10/02 13:37:45;;;;;;;4.68;1.20;;;;;;;;;;5035536;28;20053;-81
2022/10/02 13:40:30;;;;;;;3.00;1.10;;;;;;;;;;5031543;28;20125;-82
2022/10/02 13:43:00;;;;;;;2.20;1.10;;;;;;;;;;5036419;28;20041;-80
2022/10/02 13:45:28;;;;;;;2.20;1.10;;;;;;;;;;5035243;28;20099;-81
2022/10/02 13:48:04;;;;;;;2.42;1.00;;;;;;;;;;5035436;28;20124;-79
2022/10/02 13:50:33;;;;;;;2.75;1.40;;;;;;;;;;5037725;28;20040;-81
2022/10/02 13:53:10;;;;;;;1.95;0.98;;;;;;;;;;5071486;28;20524;-81
2022/10/02 13:55:52;;;;;;;3.65;1.33;;;;;;;;;;5055623;28;20025;-80
2022/10/02 13:58:27;;;;;;;3.97;1.65;;;;;;;;;;5071552;28;20564;-81
2022/10/02 14:01:03;;;;;;;3.08;1.10;;;;;;;;;;5071867;28;20057;-84
2022/10/02 14:03:41;;;;;;;4.70;1.20;;;;;;;;;;5056455;28;20032;-84
2022/10/02 14:06:20;;;;;;;4.75;2.78;;;;;;;;;;5056277;28;20147;-80
2022/10/02 14:09:02;;;;;;;4.10;1.50;;;;;;;;;;5056142;28;20040;-81
2022/10/02 14:11:47;;;;;;;2.80;1.17;;;;;;;;;;5070536;28;20075;-83
2022/10/02 14:14:25;;;;;;;3.35;1.80;;;;;;;;;;5071846;28;20467;-81
2022/10/02 14:17:00;;;;;;;3.92;2.42;;;;;;;;;;5071192;28;20021;-83
2022/10/02 14:19:51;;;;;;;3.30;1.42;;;666.50;1766.40;;;;;;5071280;28;20029;-83